Time;durP1;ratioP1;P1;durP2;ratioP2;P2;SDS_P1;SDS_P2;PMS_P1;PMS_P2;Temp;Humidity;BMP_temperature;BMP_pressure;BME280_temperature;BME280_humidity;BME280_pressure;Samples;Min_cycle;Max_cycle;Signal;HPM_P1;HPM_P2
2022/06/22 04:04:51;;;;;;;1.85;1.75;;;;;;;17.64;53.70;100134.09;5477623;28;20088;-84
2022/06/22 04:07:55;;;;;;;2.55;1.67;;;;;;;17.77;53.45;100125.72;5332739;33;34165;-84
2022/06/22 04:11:04;;;;;;;1.15;1.15;;;;;;;17.84;53.16;100117.50;5336628;33;34532;-84
2022/06/22 04:14:15;;;;;;;2.17;1.83;;;;;;;18.07;52.62;100100.38;5329293;33;34735;-84
2022/06/22 04:17:30;;;;;;;1.70;1.60;;;;;;;18.17;51.89;100100.66;5335763;33;35201;-85
2022/06/22 04:20:50;;;;;;;1.42;1.42;;;;;;;18.24;52.53;100089.62;5332981;33;33697;-84
2022/06/22 04:23:58;;;;;;;1.50;1.40;;;;;;;18.35;52.46;100089.62;5325237;33;34518;-84
2022/06/22 04:27:13;;;;;;;3.28;1.90;;;;;;;18.46;51.80;100082.53;5310765;33;33807;-84
2022/06/22 04:30:23;;;;;;;1.60;1.50;;;;;;;18.51;52.00;100090.81;5331690;33;34436;-84
2022/06/22 04:33:35;;;;;;;2.25;2.05;;;;;;;18.60;50.96;100096.75;5326075;33;34449;-84
2022/06/22 04:36:48;;;;;;;2.30;1.50;;;;;;;18.68;50.89;100096.41;5322339;33;33712;-84
2022/06/22 04:40:10;;;;;;;1.62;1.52;;;;;;;18.68;50.74;100099.13;5324258;33;34220;-84
2022/06/22 04:43:13;;;;;;;1.90;1.80;;;;;;;18.71;50.97;100108.72;5324370;33;33940;-84
2022/06/22 04:46:22;;;;;;;1.83;1.67;;;;;;;18.72;51.22;100110.38;5324614;33;33533;-84
2022/06/22 04:49:29;;;;;;;2.85;1.58;;;;;;;18.78;51.59;100110.31;5325829;33;34904;-84
2022/06/22 04:52:42;;;;;;;2.83;1.80;;;;;;;19.01;50.86;100111.31;5324174;33;33713;-84
2022/06/22 04:55:46;;;;;;;2.72;1.75;;;;;;;19.21;51.65;100116.38;5325441;33;34677;-84
2022/06/22 04:58:53;;;;;;;1.58;1.48;;;;;;;19.38;49.35;100116.47;5325714;33;34474;-84
2022/06/22 05:02:01;;;;;;;2.45;1.50;;;;;;;19.40;49.55;100109.69;5325591;33;35549;-84
2022/06/22 05:05:14;;;;;;;1.73;1.62;;;;;;;19.35;49.15;100117.78;5322804;33;34140;-84
2022/06/22 05:08:30;;;;;;;4.75;1.70;;;;;;;19.35;49.52;100128.69;5321537;33;34585;-89
2022/06/22 05:11:40;;;;;;;1.90;1.80;;;;;;;19.55;48.87;100127.47;5316241;33;33600;-85
2022/06/22 05:14:44;;;;;;;2.40;1.50;;;;;;;19.76;48.12;100132.25;5320768;33;33880;-84
2022/06/22 05:17:48;;;;;;;3.60;1.50;;;;;;;19.82;47.84;100150.41;5325731;33;34053;-85
2022/06/22 05:21:03;;;;;;;2.05;1.87;;;;;;;19.90;48.03;100157.38;5325773;33;34772;-85
2022/06/22 05:24:21;;;;;;;2.62;1.87;;;;;;;20.01;47.50;100152.94;5325543;33;35073;-85
2022/06/22 05:27:30;;;;;;;2.37;1.75;;;;;;;20.04;47.43;100158.75;5324001;33;34104;-85
2022/06/22 05:30:51;;;;;;;1.92;1.70;;;;;;;20.24;47.32;100157.44;5312305;33;32250;-85
2022/06/22 05:33:59;;;;;;;1.58;1.48;;;;;;;20.47;46.59;100148.25;5296352;33;33575;-85
2022/06/22 05:37:30;;;;;;;1.87;1.77;;;;;;;20.56;45.82;100155.00;5306435;33;34604;-85
2022/06/22 05:40:35;;;;;;;1.65;1.40;;;;;;;20.72;45.71;100154.16;5308175;33;33653;-85
2022/06/22 05:43:40;;;;;;;3.08;1.62;;;;;;;20.74;45.32;100157.47;5317288;33;34251;-85
2022/06/22 05:46:54;;;;;;;2.60;1.60;;;;;;;20.82;45.37;100153.47;5309662;33;34023;-85
2022/06/22 05:50:04;;;;;;;1.70;1.55;;;;;;;20.95;44.96;100166.81;5318731;33;34115;-89
2022/06/22 05:53:23;;;;;;;2.50;1.50;;;;;;;21.03;44.38;100168.28;5296191;33;34176;-88
2022/06/22 05:56:37;;;;;;;3.20;1.40;;;;;;;21.26;44.13;100172.69;5304223;33;34215;-85
2022/06/22 05:59:54;;;;;;;1.75;1.55;;;;;;;21.38;43.92;100175.34;5296743;33;34473;-84
2022/06/22 06:03:12;;;;;;;1.45;1.35;;;;;;;21.60;43.46;100161.66;5312441;33;34294;-81
2022/06/22 06:06:28;;;;;;;2.53;1.52;;;;;;;21.74;43.22;100163.75;5310714;33;33964;-84
2022/06/22 06:09:32;;;;;;;1.67;1.58;;;;;;;21.91;42.69;100174.62;5307385;33;34573;-84
2022/06/22 06:12:53;;;;;;;1.42;1.30;;;;;;;22.06;42.70;100173.13;5301825;33;33730;-84
2022/06/22 06:16:00;;;;;;;1.55;1.20;;;;;;;22.00;41.56;100171.44;5304758;33;36473;-84
2022/06/22 06:19:10;;;;;;;1.60;1.50;;;;;;;22.06;41.81;100168.47;5319226;33;33940;-81
2022/06/22 06:22:13;;;;;;;2.35;1.25;;;;;;;22.27;42.09;100175.00;5314741;33;34358;-83
2022/06/22 06:29:02;;;;;;;2.25;1.35;;;;;;;22.69;41.51;100168.75;5287851;33;33097;-86
2022/06/22 06:32:23;;;;;;;2.53;1.33;;;;;;;22.66;41.59;100173.97;5324571;33;33990;-83
2022/06/22 06:35:45;;;;;;;1.67;1.10;;;;;;;22.79;40.71;100179.84;5324763;33;34157;-83
2022/06/22 06:39:03;;;;;;;1.83;1.02;;;;;;;22.78;38.92;100172.66;5313036;33;34319;-83
2022/06/22 06:42:27;;;;;;;1.60;1.12;;;;;;;22.84;39.30;100171.66;5308484;33;34082;-83
2022/06/22 06:45:32;;;;;;;2.22;1.20;;;;;;;22.89;39.51;100175.50;5302572;33;35024;-83
2022/06/22 06:48:37;;;;;;;2.45;1.40;;;;;;;23.02;39.12;100177.78;5312296;33;34326;-83
2022/06/22 06:51:47;;;;;;;4.00;1.20;;;;;;;22.85;39.28;100178.78;5308453;33;33296;-83
2022/06/22 06:55:03;;;;;;;1.50;1.27;;;;;;;22.82;39.34;100178.47;5314291;33;35384;-83
2022/06/22 06:58:11;;;;;;;3.95;1.60;;;;;;;22.73;39.69;100169.91;5311069;33;34514;-83
2022/06/22 07:01:27;;;;;;;8.25;2.00;;;;;;;22.78;39.32;100160.88;5308412;33;34058;-82
2022/06/22 07:04:34;;;;;;;5.05;1.33;;;;;;;23.08;39.19;100154.78;5311366;33;35229;-83
2022/06/22 07:07:54;;;;;;;2.42;1.20;;;;;;;23.31;38.26;100159.84;5310902;33;33548;-83
2022/06/22 07:11:02;;;;;;;2.33;1.42;;;;;;;22.95;38.85;100169.81;5311337;33;33790;-84
2022/06/22 07:14:12;;;;;;;1.40;1.30;;;;;;;22.89;38.70;100148.87;5296452;33;33929;-84
2022/06/22 07:17:18;;;;;;;2.15;1.20;;;;;;;23.10;38.52;100138.84;5299498;33;34395;-84
2022/06/22 07:20:35;;;;;;;1.08;1.00;;;;;;;23.46;37.89;100141.78;5304211;33;33632;-83
2022/06/22 07:23:50;;;;;;;1.25;1.15;;;;;;;23.38;37.90;100147.78;5303751;33;34441;-84
2022/06/22 07:27:11;;;;;;;4.05;1.40;;;;;;;23.09;38.44;100153.69;5288509;33;33991;-84
2022/06/22 07:30:35;;;;;;;1.65;1.20;;;;;;;22.88;38.57;100152.72;5299818;33;33669;-83
2022/06/22 07:33:42;;;;;;;1.20;1.10;;;;;;;23.03;38.94;100149.28;5306995;33;33769;-83
2022/06/22 07:36:50;;;;;;;1.45;1.20;;;;;;;23.27;38.03;100139.50;5305950;33;33864;-83
2022/06/22 07:40:17;;;;;;;1.40;1.30;;;;;;;23.19;37.87;100139.19;5305678;33;34030;-83
2022/06/22 07:43:20;;;;;;;2.67;1.23;;;;;;;22.93;38.21;100138.19;5305756;33;34268;-83
2022/06/22 07:46:26;;;;;;;3.05;1.40;;;;;;;22.98;37.86;100124.53;5306014;33;33935;-83
2022/06/22 07:49:34;;;;;;;2.22;1.35;;;;;;;23.16;38.34;100129.56;5305694;33;33955;-86
2022/06/22 07:52:47;;;;;;;1.90;1.53;;;;;;;23.32;38.17;100130.47;5311505;33;34117;-87
2022/06/22 07:56:02;;;;;;;1.85;1.05;;;;;;;23.52;37.31;100125.03;5307851;33;33962;-84
2022/06/22 07:59:16;;;;;;;1.85;1.20;;;;;;;23.74;37.37;100127.59;5307569;33;33823;-83
2022/06/22 08:02:28;;;;;;;0.77;0.77;;;;;;;24.10;37.01;100126.81;5307889;33;33941;-84
2022/06/22 08:05:36;;;;;;;0.73;0.70;;;;;;;24.25;35.64;100118.59;5307780;33;33541;-83
2022/06/22 08:08:53;;;;;;;0.98;0.90;;;;;;;24.08;33.48;100126.28;5308462;33;33690;-83
2022/06/22 08:12:03;;;;;;;1.62;0.90;;;;;;;24.29;33.01;100122.44;5313636;33;34286;-83
2022/06/22 08:15:15;;;;;;;1.08;0.90;;;;;;;24.54;32.08;100118.91;5309212;33;34780;-83
2022/06/22 08:18:19;;;;;;;1.30;1.20;;;;;;;24.69;31.67;100119.94;5314173;33;33726;-83
2022/06/22 08:21:22;;;;;;;1.00;0.80;;;;;;;24.69;30.96;100114.44;5320171;33;33428;-83
2022/06/22 08:24:29;;;;;;;0.70;0.70;;;;;;;24.72;31.12;100119.44;5322371;33;34414;-83
2022/06/22 08:27:38;;;;;;;0.73;0.73;;;;;;;24.21;31.23;100107.31;5319739;33;34636;-83
2022/06/22 08:30:41;;;;;;;2.30;0.82;;;;;;;24.54;31.06;100118.03;5318554;33;34054;-84
2022/06/22 08:33:58;;;;;;;4.78;0.95;;;;;;;24.37;31.11;100107.31;5324576;33;33757;-83
2022/06/22 08:37:15;;;;;;;2.45;0.88;;;;;;;24.34;30.98;100108.69;5318963;33;33996;-83
2022/06/22 08:40:34;;;;;;;0.55;0.55;;;;;;;24.41;31.60;100103.72;5317518;33;35209;-85
2022/06/22 08:43:44;;;;;;;1.35;0.80;;;;;;;24.50;31.42;100109.53;5325150;33;34549;-82
2022/06/22 08:47:14;;;;;;;0.55;0.47;;;;;;;24.72;30.46;100098.22;5316720;33;33980;-82
2022/06/22 08:50:45;;;;;;;0.70;0.70;;;;;;;24.84;30.67;100103.41;5312138;33;34961;-83
2022/06/22 08:54:24;;;;;;;1.37;0.80;;;;;;;25.03;30.09;100107.19;5295335;33;34115;-82
2022/06/22 08:57:45;;;;;;;;;;;;;;;24.61;31.00;100105.66;5311725;33;33888;-83
2022/06/22 09:00:57;;;;;;;0.65;0.65;;;;;;;24.72;30.82;100114.75;5312521;33;35174;-82
2022/06/22 09:04:17;;;;;;;1.45;0.80;;;;;;;25.06;30.26;100112.16;5310031;33;33129;-82
2022/06/22 09:07:19;;;;;;;0.95;0.88;;;;;;;25.15;30.45;100112.41;5295316;33;34017;-82
2022/06/22 09:10:44;;;;;;;0.80;0.80;;;;;;;25.29;30.23;100109.91;5296522;33;32250;-83
2022/06/22 09:14:09;;;;;;;0.85;0.75;;;;;;;25.22;30.01;100110.22;5310922;33;34083;-83
2022/06/22 09:17:32;;;;;;;0.73;0.62;;;;;;;25.54;28.69;100115.28;5311427;33;33684;-83
2022/06/22 09:20:57;;;;;;;1.00;0.47;;;;;;;25.79;28.42;100114.31;5309918;33;34349;-83
2022/06/22 09:24:15;;;;;;;1.12;0.77;;;;;;;25.56;29.04;100106.72;5308907;33;34434;-82
2022/06/22 09:27:23;;;;;;;0.60;0.60;;;;;;;25.67;28.23;100102.81;5308327;33;34479;-83
2022/06/22 09:30:32;;;;;;;1.50;0.70;;;;;;;25.94;28.31;100104.31;5295052;33;33807;-82
2022/06/22 09:34:10;;;;;;;0.70;0.70;;;;;;;26.54;28.19;100098.63;5308022;33;34280;-83
2022/06/22 09:37:52;;;;;;;;;;;;;;;26.46;27.92;100091.75;5290228;33;33316;-87
2022/06/22 09:41:11;;;;;;;0.65;0.65;;;;;;;25.95;28.28;100100.47;5269382;33;34198;-84
2022/06/22 09:44:36;;;;;;;0.98;0.90;;;;;;;26.34;28.16;100085.78;5263935;33;34084;-83
2022/06/22 09:47:55;;;;;;;1.10;1.00;;;;;;;26.59;27.45;100077.31;5310499;33;34256;-83
2022/06/22 09:51:03;;;;;;;;;;;;;;;26.55;26.91;100073.47;5301353;33;34076;-83
2022/06/22 09:58:11;;;;;;;1.65;0.80;;;;;;;26.83;27.33;100073.75;5306513;33;35089;-82
2022/06/22 10:01:41;;;;;;;0.88;0.80;;;;;;;27.07;26.74;100073.72;5310181;33;35339;-87
2022/06/22 10:05:00;;;;;;;1.77;0.70;;;;;;;26.87;26.00;100075.59;5318660;33;33775;-83
2022/06/22 10:08:22;;;;;;;1.85;0.60;;;;;;;27.08;25.18;100075.34;5299998;33;34185;-86
2022/06/22 10:11:37;;;;;;;0.65;0.57;;;;;;;27.04;25.97;100071.56;5299339;33;35432;-86
2022/06/22 10:15:05;;;;;;;0.75;0.62;;;;;;;27.39;27.11;100072.25;5292685;33;33514;-85
2022/06/22 10:18:25;;;;;;;0.40;0.40;;;;;;;27.69;25.90;100074.56;5293124;33;32641;-83
2022/06/22 10:21:44;;;;;;;0.77;0.77;;;;;;;28.08;27.32;100073.44;5293375;33;31509;-84
2022/06/22 10:25:15;;;;;;;0.60;0.60;;;;;;;28.58;24.12;100050.69;5295899;33;32561;-84
2022/06/22 10:28:46;;;;;;;0.80;0.80;;;;;;;29.04;23.91;100058.94;5292486;33;33722;-85
2022/06/22 10:32:20;;;;;;;1.25;0.68;;;;;;;28.65;23.01;100068.56;5304408;33;34046;-84
2022/06/22 10:35:22;;;;;;;0.50;0.50;;;;;;;29.00;23.42;100069.00;5304975;33;34683;-85
2022/06/22 10:39:22;;;;;;;0.43;0.40;;;;;;;29.08;22.92;100065.53;5322639;33;32715;-85
2022/06/22 10:46:23;;;;;;;1.65;0.70;;;;;;;29.85;21.65;100080.50;5242855;33;32497;-85
2022/06/22 10:49:51;;;;;;;2.25;0.60;;;;;;;29.77;21.61;100078.47;5317231;33;34457;-84
2022/06/22 10:53:22;;;;;;;0.57;0.43;;;;;;;29.82;22.33;100073.63;5317110;33;33902;-84
2022/06/22 10:57:05;;;;;;;0.68;0.68;;;;;;;30.31;21.74;100073.03;5312498;33;34012;-83
2022/06/22 11:00:11;;;;;;;0.50;0.50;;;;;;;30.52;21.06;100065.78;5225756;33;33783;-83
2022/06/22 11:03:48;;;;;;;0.68;0.68;;;;;;;30.50;20.64;100071.63;5303144;33;34966;-84
2022/06/22 11:07:02;;;;;;;0.40;0.40;;;;;;;30.58;20.82;100075.63;5296952;33;34956;-88
2022/06/22 11:10:11;;;;;;;0.77;0.68;;;;;;;31.43;20.05;100066.28;5315463;33;34253;-85
2022/06/22 11:13:35;;;;;;;0.75;0.50;;;;;;;31.50;19.95;100067.44;5296812;33;32890;-84
2022/06/22 11:16:48;;;;;;;0.55;0.55;;;;;;;32.11;19.14;100069.44;5293162;33;33410;-84
2022/06/22 11:20:13;;;;;;;0.65;0.50;;;;;;;32.15;18.12;100062.88;5308859;33;33831;-84
2022/06/22 11:23:49;;;;;;;0.68;0.68;;;;;;;33.07;17.96;100062.44;5305249;33;34096;-85
2022/06/22 11:30:49;;;;;;;0.30;0.30;;;;;;;34.50;16.28;100067.03;5310206;33;34240;-84
2022/06/22 11:34:24;;;;;;;0.30;0.30;;;;;;;35.34;14.83;100064.66;5327292;33;33711;-87
2022/06/22 11:38:08;;;;;;;0.50;0.50;;;;;;;35.00;15.17;100060.31;5322583;33;32598;-85
2022/06/22 11:41:30;;;;;;;0.75;0.50;;;;;;;36.01;14.83;100045.44;5227343;33;34848;-85
2022/06/22 11:45:49;;;;;;;1.37;0.40;;;;;;;36.70;13.96;100042.47;5315691;33;34223;-85
2022/06/22 11:48:22;;;;;;;1.00;0.50;;;;;;;37.54;12.83;100032.84;5319124;33;34236;-85
2022/06/22 11:51:49;;;;;;;0.30;0.30;;;;;;;36.94;13.43;100022.63;5316199;33;34039;-86
2022/06/22 11:55:18;;;;;;;0.55;0.50;;;;;;;37.65;13.44;100019.84;5319060;33;35447;-86
2022/06/22 11:59:00;;;;;;;0.65;0.60;;;;;;;37.76;13.18;100022.84;5295815;33;33557;-85
2022/06/22 12:02:37;;;;;;;0.40;0.30;;;;;;;37.60;12.91;100012.53;5303437;33;32519;-86
2022/06/22 12:05:46;;;;;;;0.43;0.30;;;;;;;38.58;12.56;100023.63;5303802;33;35265;-85
2022/06/22 12:09:07;;;;;;;0.22;0.20;;;;;;;39.04;12.22;100021.56;5307992;33;34830;-86
2022/06/22 12:12:24;;;;;;;0.40;0.40;;;;;;;38.47;12.22;100023.47;5307353;33;33822;-86
2022/06/22 12:16:00;;;;;;;0.52;0.50;;;;;;;39.48;11.57;100014.56;5290064;33;34209;-86
2022/06/22 12:19:14;;;;;;;1.42;0.70;;;;;;;40.49;11.04;100011.69;5293987;33;32888;-86
2022/06/22 12:22:55;;;;;;;1.08;0.37;;;;;;;40.06;11.47;100008.44;5315629;33;31927;-86
2022/06/22 12:26:28;;;;;;;0.52;0.40;;;;;;;40.37;12.05;100009.97;5293378;33;32567;-85
2022/06/22 12:29:37;;;;;;;0.30;0.30;;;;;;;40.50;11.85;100002.81;5303792;33;34084;-85
2022/06/22 12:33:26;;;;;;;2.20;0.45;;;;;;;40.84;11.92;100002.72;5299611;33;33509;-86
2022/06/22 12:36:35;;;;;;;0.52;0.52;;;;;;;40.20;11.39;99997.31;5309484;33;33718;-91
2022/06/22 12:39:48;;;;;;;1.23;0.32;;;;;;;41.28;11.11;99989.69;5308430;33;34196;-89
2022/06/22 12:43:12;;;;;;;0.82;0.28;;;;;;;41.42;10.43;99995.38;5316743;27;34319;-85
2022/06/22 12:46:26;;;;;;;0.20;0.20;;;;;;;41.08;11.78;99984.34;5314752;33;34374;-87
2022/06/22 12:50:07;;;;;;;0.28;0.25;;;;;;;41.33;11.34;99980.81;5308840;33;33993;-87
2022/06/22 12:53:41;;;;;;;1.02;0.45;;;;;;;41.91;10.55;99985.50;5322595;33;34041;-88
2022/06/22 12:57:01;;;;;;;0.30;0.30;;;;;;;40.97;10.65;99974.94;5306456;33;32318;-86
2022/06/22 13:00:18;;;;;;;0.65;0.40;;;;;;;41.79;10.69;99977.38;5325987;33;34871;-89
2022/06/22 13:03:26;;;;;;;0.37;0.37;;;;;;;41.17;10.75;99969.84;5313382;33;33527;-86
2022/06/22 13:06:31;;;;;;;0.85;0.43;;;;;;;41.20;11.53;99972.69;5321889;33;33718;-86
2022/06/22 13:09:34;;;;;;;0.85;0.30;;;;;;;41.35;10.70;99967.91;5303475;33;127855;-85
2022/06/22 13:12:52;;;;;;;0.43;0.40;;;;;;;41.34;11.31;99963.47;5295786;33;34083;-86
2022/06/22 13:16:09;;;;;;;0.35;0.35;;;;;;;41.50;10.50;99956.69;5310170;33;34872;-85
2022/06/22 13:19:18;;;;;;;0.70;0.37;;;;;;;42.25;10.54;99948.37;5308623;33;34666;-86
2022/06/22 13:22:47;;;;;;;0.50;0.50;;;;;;;42.24;10.37;99955.22;5294819;33;33812;-86
2022/06/22 13:26:10;;;;;;;1.45;0.40;;;;;;;42.34;10.41;99941.13;5308084;33;34791;-86
2022/06/22 13:29:34;;;;;;;0.47;0.47;;;;;;;42.49;10.46;99941.13;5301770;33;34247;-83
2022/06/22 13:32:39;;;;;;;0.30;0.30;;;;;;;41.84;10.72;99926.91;5302064;33;33877;-85
2022/06/22 13:35:47;;;;;;;0.40;0.30;;;;;;;42.11;10.65;99941.50;5293452;33;34168;-85
2022/06/22 13:39:10;;;;;;;0.40;0.40;;;;;;;42.31;10.19;99936.28;5292099;33;34840;-87
2022/06/22 13:42:35;;;;;;;0.40;0.40;;;;;;;42.14;10.39;99946.34;5296868;33;33937;-85
2022/06/22 13:45:44;;;;;;;0.90;0.50;;;;;;;42.37;10.92;99942.34;5277845;33;33465;-86
2022/06/22 13:48:56;;;;;;;0.60;0.55;;;;;;;41.88;10.96;99941.84;5306149;33;33903;-85
2022/06/22 13:52:19;;;;;;;0.43;0.30;;;;;;;42.14;11.90;99940.69;5291147;33;34046;-86
2022/06/22 13:55:29;;;;;;;0.93;0.52;;;;;;;42.42;10.84;99924.97;5290755;33;34140;-85
2022/06/22 13:58:37;;;;;;;0.30;0.30;;;;;;;42.38;10.92;99929.78;5290344;33;33658;-85
2022/06/22 14:01:53;;;;;;;0.40;0.40;;;;;;;41.96;11.19;99925.72;5291862;33;33712;-84
2022/06/22 14:05:07;;;;;;;0.57;0.55;;;;;;;40.41;12.34;99931.00;5292676;33;35168;-86
2022/06/22 14:08:31;;;;;;;1.00;0.47;;;;;;;37.96;13.80;99934.56;5293615;33;34715;-85
2022/06/22 14:11:57;;;;;;;0.50;0.50;;;;;;;35.39;15.68;99927.19;5291114;33;34132;-86
2022/06/22 14:15:26;;;;;;;0.90;0.35;;;;;;;34.34;16.53;99921.50;5278685;33;33096;-86
2022/06/22 14:18:50;;;;;;;0.57;0.50;;;;;;;33.57;17.41;99924.03;5315985;28;35421;-85
2022/06/22 14:22:06;;;;;;;1.50;0.68;;;;;;;33.23;18.09;99919.53;5311814;33;34150;-85
2022/06/22 14:25:19;;;;;;;0.30;0.30;;;;;;;32.67;18.61;99926.16;5301729;33;34975;-85
2022/06/22 14:28:42;;;;;;;0.80;0.70;;;;;;;32.08;19.53;99924.09;5288635;33;33119;-84
2022/06/22 14:31:55;;;;;;;1.52;0.93;;;;;;;31.92;20.61;99925.00;5290131;33;35438;-84
2022/06/22 14:35:16;;;;;;;0.85;0.70;;;;;;;32.16;20.13;99919.66;5290254;33;34025;-84
2022/06/22 14:38:22;;;;;;;2.78;0.82;;;;;;;32.57;19.84;99926.53;5291292;33;32376;-84
2022/06/22 14:41:41;;;;;;;1.05;0.68;;;;;;;32.30;20.00;99920.25;5298181;33;35061;-84
2022/06/22 14:44:53;;;;;;;1.15;1.00;;;;;;;32.25;19.87;99920.44;5306878;33;34468;-85
2022/06/22 14:48:20;;;;;;;0.82;0.80;;;;;;;31.38;20.67;99909.50;5292690;33;34890;-84
2022/06/22 14:51:31;;;;;;;1.60;0.65;;;;;;;31.04;20.98;99913.09;5289955;33;34742;-84
2022/06/22 14:54:49;;;;;;;1.02;1.00;;;;;;;30.99;21.54;99912.44;5289377;33;34437;-89
2022/06/22 14:58:35;;;;;;;0.73;0.73;;;;;;;30.85;22.61;99907.00;5293672;33;33556;-85
2022/06/22 15:01:56;;;;;;;1.15;0.93;;;;;;;30.40;22.04;99908.03;5267964;33;33908;-86
2022/06/22 15:05:11;;;;;;;1.12;0.98;;;;;;;30.28;22.04;99893.94;5292452;33;34055;-87
2022/06/22 15:08:19;;;;;;;0.90;0.90;;;;;;;30.36;22.07;99892.31;5293152;33;34115;-88
2022/06/22 15:15:14;;;;;;;3.12;0.82;;;;;;;30.13;22.30;99869.34;5297618;33;34175;-87
2022/06/22 15:18:28;;;;;;;;;;;;;;;30.00;22.99;99871.09;5304645;33;34166;-87
2022/06/22 15:21:41;;;;;;;1.15;0.90;;;;;;;29.79;22.70;99873.63;5304871;33;35155;-90
2022/06/22 15:25:23;;;;;;;0.80;0.80;;;;;;;29.69;22.92;99866.41;5304180;33;35471;-87
2022/06/22 15:28:43;;;;;;;1.00;1.00;;;;;;;29.74;23.37;99873.75;5294242;33;34881;-86
2022/06/22 15:31:51;;;;;;;2.15;1.00;;;;;;;29.70;23.97;99867.22;5292668;33;35365;-87
2022/06/22 15:35:02;;;;;;;1.87;1.10;;;;;;;29.39;24.43;99867.97;5281126;33;32375;-87
2022/06/22 15:38:08;;;;;;;2.42;1.10;;;;;;;29.52;24.37;99861.53;5292943;33;33906;-87
2022/06/22 15:42:03;;;;;;;0.93;0.93;;;;;;;29.39;24.19;99849.34;5295900;33;34730;-87
2022/06/22 15:45:21;;;;;;;1.25;1.08;;;;;;;29.37;24.44;99867.47;5296955;33;34898;-87
2022/06/22 15:48:47;;;;;;;0.98;0.98;;;;;;;29.09;24.99;99855.69;5291775;33;34010;-86
2022/06/22 15:52:14;;;;;;;1.85;1.20;;;;;;;28.79;25.35;99862.75;5290078;33;33850;-88
